Time;durP1;ratioP1;P1;durP2;ratioP2;P2;SDS_P1;SDS_P2;PMS_P1;PMS_P2;Temp;Humidity;BMP_temperature;BMP_pressure;BME280_temperature;BME280_humidity;BME280_pressure;Samples;Min_cycle;Max_cycle;Signal;HPM_P1;HPM_P2
2022/07/18 00:00:40;;;;;;;1.73;0.60;;;18.30;51.40;;;16.95;40.75;100974.25;10402627;27;96525;-85
2022/07/18 00:05:43;;;;;;;1.50;0.60;;;18.20;51.50;;;16.92;41.18;100968.47;10420758;27;96546;-85
2022/07/18 00:10:46;;;;;;;1.65;0.68;;;18.10;51.60;;;16.84;40.95;100969.38;10421590;27;96718;-85
2022/07/18 00:15:49;;;;;;;0.85;0.38;;;18.00;52.10;;;16.77;40.99;100980.06;10416375;27;96736;-85
2022/07/18 00:20:52;;;;;;;1.88;0.55;;;18.00;51.70;;;16.71;40.90;100978.13;10421703;27;97473;-85
2022/07/18 00:25:55;;;;;;;1.58;0.57;;;17.90;51.70;;;16.66;40.95;100982.38;10425860;27;97048;-85
2022/07/18 00:30:58;;;;;;;1.33;0.50;;;17.90;51.80;;;16.61;40.90;100977.56;10425051;27;96593;-85
2022/07/18 00:36:02;;;;;;;2.70;0.47;;;17.90;51.70;;;16.52;41.49;100981.38;10444848;27;96527;-86
2022/07/18 00:41:05;;;;;;;1.48;0.50;;;17.80;52.00;;;16.41;42.13;100985.38;10420896;27;97179;-85
2022/07/18 00:46:10;;;;;;;0.90;0.50;;;17.70;52.30;;;16.27;42.57;100991.59;10428490;27;97850;-84
2022/07/18 00:51:14;;;;;;;1.00;0.45;;;17.60;52.70;;;16.18;42.71;100990.84;10428868;27;96532;-85
2022/07/18 00:56:20;;;;;;;2.58;0.52;;;17.50;53.00;;;16.10;42.86;100993.63;10427311;27;97425;-85
2022/07/18 01:06:47;;;;;;;1.00;0.52;;;17.30;53.10;;;15.99;43.42;100997.59;10456843;27;96625;-84
2022/07/18 01:11:50;;;;;;;1.00;0.40;;;17.30;53.40;;;15.90;43.84;101003.22;10426452;27;96678;-84
2022/07/18 01:16:53;;;;;;;1.05;0.25;;;17.20;53.80;;;15.79;44.24;101001.81;10440173;27;97761;-84
2022/07/18 01:21:56;;;;;;;1.13;0.60;;;17.10;54.10;;;15.68;44.42;100996.91;10459701;27;96536;-84
2022/07/18 01:26:59;;;;;;;1.25;0.77;;;16.90;54.30;;;15.55;44.54;101000.16;10412443;27;96962;-84
2022/07/18 01:32:08;;;;;;;1.55;0.60;;;16.80;54.70;;;15.46;44.24;101006.59;10425864;27;97422;-83
2022/07/18 01:37:11;;;;;;;2.63;0.70;;;16.70;54.60;;;15.44;44.46;101006.78;10441559;27;98246;-84
2022/07/18 01:42:15;;;;;;;3.25;0.45;;;16.70;54.90;;;15.42;44.60;101003.47;10425489;27;96678;-85
2022/07/18 01:47:18;;;;;;;0.38;0.35;;;16.70;54.90;;;15.42;45.05;101002.63;10424006;27;96656;-85
2022/07/18 01:52:21;;;;;;;2.15;0.50;;;16.70;55.20;;;15.42;45.33;101002.63;10437075;27;98695;-85
2022/07/18 01:57:24;;;;;;;2.00;0.60;;;16.60;55.20;;;15.38;45.91;100998.63;10424349;27;97602;-85
2022/07/18 02:02:27;;;;;;;1.15;0.43;;;16.70;55.70;;;15.33;46.25;101001.00;10436859;27;99084;-85
2022/07/18 02:07:37;;;;;;;2.00;0.50;;;16.60;56.00;;;15.22;46.38;101000.41;10425386;27;96578;-85
2022/07/18 02:12:40;;;;;;;2.08;0.75;;;16.50;56.30;;;15.13;46.86;101009.53;10423449;27;96709;-85
2022/07/18 02:17:44;;;;;;;1.85;0.63;;;16.40;56.70;;;15.06;47.14;101011.25;10438374;27;96642;-85
2022/07/18 02:22:47;;;;;;;2.13;0.55;;;16.30;56.90;;;15.04;47.55;101023.97;10399451;27;96649;-84
2022/07/18 02:27:50;;;;;;;2.63;0.77;;;16.30;57.30;;;15.02;47.54;101022.47;10440072;27;96645;-84
2022/07/18 02:32:55;;;;;;;3.47;0.75;;;16.30;57.50;;;14.97;47.99;101023.00;10439112;27;97605;-85
2022/07/18 02:37:58;;;;;;;2.17;1.00;;;16.30;58.30;;;14.95;48.19;101025.88;10424301;27;97206;-85
2022/07/18 02:43:02;;;;;;;4.13;1.13;;;16.20;58.00;;;14.96;48.09;101016.00;10422005;27;97006;-84
2022/07/18 02:48:05;;;;;;;1.48;0.60;;;16.20;57.90;;;14.91;48.45;101010.34;10435587;27;96840;-84
2022/07/18 02:53:08;;;;;;;2.47;0.68;;;16.20;58.40;;;14.86;49.00;101021.56;10399263;27;96562;-84
2022/07/18 02:58:11;;;;;;;3.72;0.90;;;16.20;58.80;;;14.85;49.10;101022.56;10423531;27;97316;-84
2022/07/18 03:03:14;;;;;;;2.67;0.80;;;16.10;58.80;;;14.88;49.01;101029.44;10397749;27;97145;-84
2022/07/18 03:08:17;;;;;;;5.38;0.95;;;16.10;58.80;;;14.84;49.90;101028.09;10421963;27;96433;-84
2022/07/18 03:13:20;;;;;;;4.18;1.10;;;16.10;59.10;;;14.79;49.87;101020.59;10385054;27;96689;-84
2022/07/18 03:18:25;;;;;;;5.07;1.20;;;16.10;59.20;;;14.79;50.11;101025.94;10418501;27;96587;-85
2022/07/18 03:23:28;;;;;;;1.75;0.90;;;16.10;59.50;;;14.75;50.52;101023.78;10422343;27;96886;-84
2022/07/18 03:28:32;;;;;;;4.25;1.20;;;16.00;59.80;;;14.71;50.95;101026.00;10436353;27;96719;-84
2022/07/18 03:33:35;;;;;;;7.10;1.05;;;16.00;60.20;;;14.71;51.15;101024.16;10446971;27;96823;-85
2022/07/18 03:38:43;;;;;;;7.93;2.20;;;16.00;60.50;;;14.77;50.94;101037.84;10420198;27;97062;-84
2022/07/18 03:43:46;;;;;;;8.10;2.58;;;16.00;60.40;;;14.86;51.06;101031.44;10421248;27;96572;-83
2022/07/18 03:48:49;;;;;;;6.15;1.02;;;16.10;60.60;;;14.98;51.24;101030.84;10437786;27;97915;-84
2022/07/18 03:53:52;;;;;;;4.95;1.25;;;16.20;60.70;;;15.10;51.75;101042.00;10409799;27;96852;-83
2022/07/18 03:58:55;;;;;;;4.38;1.05;;;16.30;61.00;;;15.20;51.57;101044.44;10420286;27;96417;-83
2022/07/18 04:03:58;;;;;;;4.57;0.90;;;16.40;61.10;;;15.34;52.61;101046.34;10420367;27;96601;-81
2022/07/18 04:09:02;;;;;;;2.00;0.80;;;16.50;61.50;;;15.50;52.34;101045.41;10437796;27;97901;-81
2022/07/18 04:14:04;;;;;;;4.03;0.98;;;16.70;61.70;;;15.68;52.13;101054.00;10442099;27;96832;-83
2022/07/18 04:19:08;;;;;;;5.60;1.10;;;16.90;61.60;;;15.87;51.70;101052.66;10426253;27;97649;-83
2022/07/18 04:24:11;;;;;;;1.67;0.82;;;17.10;61.30;;;16.06;50.74;101062.03;10428625;27;96846;-83
2022/07/18 04:29:14;;;;;;;2.00;0.82;;;17.30;60.90;;;16.28;50.59;101058.44;10428750;27;96666;-83
2022/07/18 04:34:17;;;;;;;3.78;1.00;;;17.50;60.70;;;16.53;50.95;101059.00;10426503;27;98985;-83
2022/07/18 04:39:21;;;;;;;1.90;1.10;;;17.70;60.80;;;16.72;50.70;101063.00;10419315;27;96796;-83
2022/07/18 04:44:24;;;;;;;3.60;0.90;;;17.90;60.50;;;16.95;49.31;101059.34;10396703;27;96664;-83
2022/07/18 04:49:27;;;;;;;3.05;0.80;;;18.10;59.60;;;17.17;48.90;101061.06;10421552;27;96744;-83
2022/07/18 04:54:29;;;;;;;1.90;0.90;;;18.30;59.20;;;17.38;48.51;101062.91;10420606;27;99100;-84
2022/07/18 04:59:32;;;;;;;1.33;0.80;;;18.50;59.00;;;17.58;48.15;101049.69;10418798;27;96636;-83
2022/07/18 05:04:39;;;;;;;1.42;0.60;;;18.80;58.60;;;17.78;46.72;101052.56;10422551;27;96704;-84
2022/07/18 05:09:42;;;;;;;5.82;3.05;;;18.90;57.70;;;17.95;46.33;101048.56;10439051;27;96615;-83
2022/07/18 05:14:45;;;;;;;2.83;1.30;;;19.10;57.60;;;18.15;46.27;101054.09;10429870;27;96751;-83
2022/07/18 05:19:52;;;;;;;1.77;0.90;;;19.30;57.40;;;18.39;45.31;101058.16;10421447;27;98354;-83
2022/07/18 05:24:57;;;;;;;1.95;0.90;;;19.50;56.80;;;18.62;44.57;101064.09;10418666;27;97285;-81
2022/07/18 05:30:04;;;;;;;3.95;0.82;;;19.70;56.20;;;18.89;44.44;101069.63;10458340;27;97461;-80
2022/07/18 05:35:09;;;;;;;2.38;0.73;;;20.00;55.90;;;19.16;42.89;101065.16;10457064;27;96630;-79
2022/07/18 05:40:15;;;;;;;2.20;0.80;;;20.20;55.10;;;19.39;42.56;101056.72;10438317;27;98448;-80
2022/07/18 05:45:18;;;;;;;1.60;0.75;;;20.50;54.50;;;19.55;42.24;101060.88;10440914;27;96983;-81
2022/07/18 05:50:23;;;;;;;2.92;0.80;;;20.70;54.30;;;19.74;42.07;101058.25;10437062;27;98190;-80
2022/07/18 05:55:26;;;;;;;2.63;1.02;;;20.90;54.00;;;19.98;41.48;101053.25;10434774;27;96832;-80
2022/07/18 06:00:29;;;;;;;2.85;0.80;;;21.10;53.50;;;20.17;40.25;101048.88;10460421;27;96859;-82
2022/07/18 06:05:32;;;;;;;4.90;1.08;;;21.30;52.60;;;20.30;40.05;101048.84;10441205;27;96612;-80
2022/07/18 06:10:36;;;;;;;5.55;1.02;;;21.50;52.10;;;20.46;39.92;101044.91;10433440;27;96997;-86
2022/07/18 06:15:45;;;;;;;3.20;0.70;;;21.60;51.60;;;20.65;39.66;101049.38;10447167;27;96746;-82
2022/07/18 06:20:48;;;;;;;1.98;0.77;;;21.80;51.60;;;20.85;39.31;101052.00;10423573;27;96620;-82
2022/07/18 06:25:51;;;;;;;3.40;1.05;;;22.00;51.70;;;20.96;38.17;101051.31;10450122;27;97117;-84
2022/07/18 06:30:55;;;;;;;2.85;0.90;;;22.20;50.70;;;21.11;37.78;101041.06;10438551;27;96885;-85
2022/07/18 06:35:58;;;;;;;1.08;0.50;;;22.30;50.30;;;21.27;37.94;101047.00;10401472;28;96645;-86
2022/07/18 06:41:01;;;;;;;3.60;0.70;;;22.50;50.70;;;21.44;38.24;101044.63;10415433;27;97376;-80
2022/07/18 06:46:04;;;;;;;2.33;1.05;;;22.60;50.10;;;21.56;38.22;101030.19;10435788;27;96642;-80
2022/07/18 06:51:08;;;;;;;3.03;1.00;;;22.80;50.20;;;21.66;37.43;101034.28;10456507;27;97636;-80
2022/07/18 06:56:11;;;;;;;2.95;1.05;;;22.90;49.60;;;21.73;37.50;101026.94;10422534;27;96513;-81
2022/07/18 07:01:18;;;;;;;1.85;0.60;;;23.00;49.60;;;21.88;37.62;101019.28;10437269;27;96647;-81
2022/07/18 07:06:21;;;;;;;2.60;0.93;;;23.10;49.70;;;21.99;37.57;101015.03;10457721;27;97097;-81
2022/07/18 07:11:24;;;;;;;3.33;0.95;;;23.20;49.50;;;22.15;37.68;101007.19;10422367;27;96888;-80
2022/07/18 07:16:28;;;;;;;3.85;0.80;;;23.30;49.60;;;22.24;36.69;101004.19;10420076;27;98054;-80
2022/07/18 07:21:31;;;;;;;3.72;0.80;;;23.50;49.10;;;22.38;36.46;101000.28;10426325;27;97850;-80
2022/07/18 07:26:35;;;;;;;2.30;0.80;;;23.60;49.00;;;22.59;36.09;100996.28;10436982;27;97496;-81
2022/07/18 07:31:40;;;;;;;3.30;0.80;;;23.80;48.50;;;22.86;36.75;100994.06;10435390;27;96693;-81
2022/07/18 07:36:43;;;;;;;1.92;0.77;;;24.00;48.80;;;22.99;35.87;100988.47;10437353;27;96673;-80
2022/07/18 07:41:46;;;;;;;1.92;0.90;;;24.20;48.10;;;23.12;35.20;100982.84;10455432;27;96689;-81
2022/07/18 07:46:53;;;;;;;4.22;0.93;;;24.30;47.30;;;23.28;35.42;100980.53;10442433;27;96855;-82
2022/07/18 07:51:56;;;;;;;2.50;0.80;;;24.40;47.70;;;23.39;34.24;100982.44;10450082;27;96686;-80
2022/07/18 07:56:59;;;;;;;2.72;0.75;;;24.60;47.10;;;23.54;33.17;100980.09;10425400;27;96966;-80
2022/07/18 08:02:03;;;;;;;5.18;0.80;;;24.70;46.00;;;23.77;32.26;100976.59;10453754;27;96761;-80
2022/07/18 08:07:06;;;;;;;2.67;0.82;;;25.00;45.30;;;23.90;31.84;100980.97;10412075;27;98721;-81
2022/07/18 08:12:09;;;;;;;2.15;0.50;;;25.10;44.60;;;24.13;31.79;100983.66;10437536;27;98038;-83
2022/07/18 08:17:12;;;;;;;1.40;0.75;;;25.30;44.50;;;24.35;31.29;100973.03;10445409;27;96675;-80
2022/07/18 08:22:15;;;;;;;4.50;1.02;;;25.50;44.20;;;24.52;30.32;100971.19;10434954;27;96701;-80
2022/07/18 08:27:18;;;;;;;3.08;0.82;;;25.70;43.50;;;24.68;30.48;100976.94;10450646;27;96731;-79
2022/07/18 08:32:21;;;;;;;2.83;0.80;;;25.80;43.40;;;24.87;30.02;100972.94;10430125;27;96627;-84
2022/07/18 08:37:24;;;;;;;3.63;0.70;;;26.00;43.20;;;25.01;29.72;100971.59;10436648;27;96545;-82
2022/07/18 08:42:28;;;;;;;1.23;0.70;;;26.20;43.00;;;25.13;29.39;100970.69;10419159;27;97244;-79
2022/07/18 08:47:31;;;;;;;4.68;0.77;;;26.30;42.70;;;25.13;28.66;100984.31;10433986;27;97004;-80
2022/07/18 08:52:37;;;;;;;2.75;0.70;;;26.30;42.30;;;25.13;28.81;100965.25;10435503;27;97440;-80
2022/07/18 08:57:57;;;;;;;1.92;0.60;;;26.30;42.10;;;25.31;28.83;100962.34;10433744;27;97901;-80
2022/07/18 09:03:11;;;;;;;2.03;0.80;;;26.40;42.10;;;25.39;28.66;100963.81;10447429;27;96894;-80
2022/07/18 09:08:19;;;;;;;2.58;0.80;;;26.40;41.70;;;25.45;28.08;100965.53;10426074;27;96656;-83
2022/07/18 09:13:44;;;;;;;2.00;0.70;;;26.50;41.80;;;25.65;28.74;100960.41;10439685;27;97393;-82
2022/07/18 09:18:48;;;;;;;3.90;0.95;;;26.70;42.00;;;25.86;27.78;100953.41;10459016;27;96667;-80
2022/07/18 09:23:53;;;;;;;2.80;0.90;;;26.90;41.10;;;25.89;27.15;100947.44;10438335;27;96590;-80
2022/07/18 09:28:56;;;;;;;2.55;0.80;;;26.90;40.70;;;25.96;27.02;100955.44;10434541;27;96723;-80
2022/07/18 09:34:38;;;;;;;5.18;0.95;;;27.00;40.60;;;26.18;26.72;100944.56;10441111;27;96836;-80
2022/07/18 09:39:41;;;;;;;2.05;0.90;;;27.20;40.70;;;26.31;26.57;100949.63;10456806;27;96602;-80
2022/07/18 09:44:58;;;;;;;1.10;0.70;;;27.40;40.30;;;26.53;25.96;100946.91;10410497;27;97653;-79
2022/07/18 09:50:01;;;;;;;2.60;0.57;;;27.70;39.90;;;26.73;25.76;100941.69;10423193;27;96658;-79
2022/07/18 09:55:05;;;;;;;1.85;0.57;;;27.80;39.80;;;26.93;25.69;100936.44;10437871;27;96618;-80
2022/07/18 10:00:09;;;;;;;2.53;0.70;;;28.00;39.50;;;27.06;25.20;100928.94;10438317;27;96996;-80
2022/07/18 10:05:13;;;;;;;1.92;0.68;;;28.20;38.90;;;27.28;24.44;100926.91;10414188;27;100526;-81
2022/07/18 10:10:16;;;;;;;1.92;0.60;;;28.40;38.30;;;27.30;23.43;100924.78;10431413;27;97545;-80
2022/07/18 10:15:23;;;;;;;3.35;0.60;;;28.50;37.30;;;27.23;23.39;100924.19;10412263;27;96581;-81
2022/07/18 10:20:39;;;;;;;3.25;0.73;;;28.50;37.30;;;27.26;23.88;100920.91;10459311;27;96608;-80
2022/07/18 10:25:43;;;;;;;1.20;0.50;;;28.60;37.50;;;27.53;23.19;100911.81;10419214;27;96492;-81
2022/07/18 10:30:49;;;;;;;3.70;0.60;;;28.80;37.10;;;27.82;22.91;100909.56;10429664;27;96817;-80
2022/07/18 10:36:05;;;;;;;2.13;1.00;;;28.90;36.80;;;27.89;22.80;100899.22;10437650;27;98676;-80
2022/07/18 10:41:14;;;;;;;4.47;0.60;;;29.10;36.70;;;27.99;22.26;100886.44;10449835;27;96791;-81
2022/07/18 10:46:17;;;;;;;1.30;0.60;;;29.30;36.30;;;28.11;22.08;100886.19;10398526;27;97642;-80
2022/07/18 10:51:29;;;;;;;3.17;0.70;;;29.30;36.00;;;28.40;22.30;100883.88;10389179;27;96951;-81
2022/07/18 10:56:38;;;;;;;2.53;0.73;;;29.40;36.30;;;28.44;21.87;100868.56;10439998;27;96926;-81
2022/07/18 11:01:56;;;;;;;2.15;0.80;;;29.60;36.00;;;28.52;21.37;100868.03;10452978;27;96621;-82
2022/07/18 11:07:13;;;;;;;3.17;1.00;;;29.70;35.70;;;28.71;21.75;100862.84;10435623;27;97613;-80
2022/07/18 11:12:26;;;;;;;5.60;1.15;;;29.90;35.80;;;28.86;21.49;100842.09;10434980;27;96675;-81
2022/07/18 11:17:51;;;;;;;2.83;0.70;;;30.00;35.90;;;29.12;21.67;100841.00;10408571;27;96801;-81
2022/07/18 11:23:13;;;;;;;1.83;0.63;;;30.30;36.00;;;29.05;21.63;100824.03;10438278;27;97065;-81
2022/07/18 11:28:18;;;;;;;1.35;0.70;;;30.30;35.70;;;28.87;21.81;100821.84;10456010;27;96522;-82
2022/07/18 11:33:28;;;;;;;2.22;0.82;;;30.30;35.80;;;28.85;21.31;100824.00;10454490;27;96752;-81
2022/07/18 11:38:33;;;;;;;4.25;0.57;;;30.30;35.50;;;28.96;21.46;100810.09;10434990;27;97486;-81
2022/07/18 11:43:36;;;;;;;2.70;0.80;;;30.30;35.50;;;28.84;21.71;100804.03;10452134;27;96659;-81
2022/07/18 11:48:40;;;;;;;2.45;1.00;;;30.30;35.50;;;29.19;21.40;100803.22;10445173;27;97190;-82
2022/07/18 11:53:52;;;;;;;1.77;0.70;;;30.60;35.20;;;29.35;21.59;100798.53;10419709;27;96789;-80
2022/07/18 11:58:57;;;;;;;2.03;0.85;;;30.70;35.50;;;29.75;20.71;100792.13;10411951;28;96697;-80
2022/07/18 12:04:02;;;;;;;12.52;1.42;;;31.10;35.20;;;29.76;20.36;100784.72;10437171;27;96907;-81
2022/07/18 12:09:06;;;;;;;12.45;1.05;;;31.20;34.50;;;29.57;20.15;100777.13;10432527;27;97460;-81
2022/07/18 12:14:09;;;;;;;1.70;0.70;;;31.00;34.10;;;29.88;20.28;100770.69;10412182;28;96605;-81
2022/07/18 12:19:24;;;;;;;20.67;1.60;;;31.20;34.40;;;30.10;19.36;100768.34;10437399;27;96554;-82
2022/07/18 12:24:29;;;;;;;3.78;0.90;;;31.40;34.10;;;30.20;19.51;100762.81;10403027;27;96785;-82
2022/07/18 12:30:07;;;;;;;12.05;4.38;;;31.60;33.90;;;30.29;19.56;100758.38;10430413;27;96580;-83
2022/07/18 12:35:22;;;;;;;1.60;0.75;;;31.70;33.50;;;30.29;19.22;100761.13;10445671;27;98203;-82
2022/07/18 12:40:45;;;;;;;3.03;0.70;;;31.70;33.50;;;30.35;19.25;100759.97;10405773;27;96637;-81
2022/07/18 12:45:49;;;;;;;1.88;0.75;;;31.80;33.20;;;30.85;19.34;100746.13;10417768;27;96543;-80
2022/07/18 12:51:03;;;;;;;3.90;0.55;;;32.00;33.50;;;31.27;18.73;100744.59;10428211;27;96608;-82
2022/07/18 12:56:07;;;;;;;1.00;0.52;;;32.40;33.50;;;31.75;18.38;100737.09;10440098;27;97035;-81
2022/07/18 13:01:11;;;;;;;3.38;0.77;;;32.80;33.50;;;31.67;18.16;100732.28;10456412;27;96545;-82
2022/07/18 13:06:20;;;;;;;2.95;0.80;;;33.00;32.70;;;31.17;17.42;100729.00;10434661;27;96821;-81
2022/07/18 13:11:23;;;;;;;5.03;0.70;;;32.80;31.70;;;31.15;18.17;100726.56;10433029;27;96979;-81
2022/07/18 13:16:32;;;;;;;2.13;0.80;;;32.60;32.40;;;31.12;17.86;100724.41;10440419;27;96632;-82
2022/07/18 13:21:35;;;;;;;0.60;0.40;;;32.70;32.20;;;31.45;17.86;100721.84;10434908;27;96654;-82
2022/07/18 13:26:38;;;;;;;3.15;0.65;;;32.80;32.30;;;31.58;17.84;100710.13;10432908;27;98287;-82
2022/07/18 13:31:42;;;;;;;1.20;0.70;;;33.00;32.20;;;31.30;17.28;100716.53;10439878;27;97624;-82
2022/07/18 13:36:46;;;;;;;1.45;0.60;;;32.90;31.40;;;31.41;17.38;100718.03;10457016;27;96540;-82
2022/07/18 13:41:51;;;;;;;64.63;18.77;;;32.80;31.80;;;31.51;17.10;100709.69;10441370;27;96547;-82
2022/07/18 13:46:54;;;;;;;4.60;1.83;;;32.90;31.60;;;31.48;17.16;100704.75;10403161;27;96799;-82
2022/07/18 13:51:56;;;;;;;1.45;0.60;;;33.00;31.50;;;31.61;17.22;100703.25;10457474;27;96584;-82
2022/07/18 13:56:59;;;;;;;0.93;0.60;;;33.10;31.50;;;31.81;17.47;100699.41;10439134;27;99216;-82
2022/07/18 14:02:02;;;;;;;1.75;0.43;;;33.20;31.60;;;32.16;16.84;100695.28;10456933;27;97799;-82
2022/07/18 14:07:06;;;;;;;1.13;0.55;;;33.60;31.60;;;32.17;16.49;100699.66;10427147;27;96758;-84
2022/07/18 14:12:09;;;;;;;1.30;0.55;;;33.70;31.00;;;32.12;16.24;100684.06;10434143;27;96614;-82
2022/07/18 14:17:12;;;;;;;1.15;0.63;;;33.60;30.60;;;32.06;16.41;100687.19;10454751;27;98545;-83
2022/07/18 14:22:15;;;;;;;2.70;0.60;;;33.60;30.70;;;32.02;16.25;100683.41;10455010;27;97093;-82
2022/07/18 14:27:18;;;;;;;1.60;0.60;;;33.50;30.80;;;31.95;16.61;100670.03;10441186;27;96721;-83
2022/07/18 14:32:29;;;;;;;1.40;0.45;;;33.40;31.10;;;31.84;16.82;100674.88;10406756;28;96786;-83
2022/07/18 14:37:32;;;;;;;1.70;0.77;;;33.30;31.10;;;31.71;16.85;100668.19;10415621;27;98532;-85
2022/07/18 14:42:35;;;;;;;0.98;0.52;;;33.20;31.20;;;31.78;17.09;100659.56;10409538;27;96616;-82
2022/07/18 14:47:39;;;;;;;3.17;0.68;;;33.20;31.40;;;31.83;17.30;100655.94;10413154;28;98730;-82
2022/07/18 14:52:42;;;;;;;2.90;0.70;;;33.20;31.60;;;32.01;16.48;100646.84;10390030;28;96503;-82
2022/07/18 14:57:45;;;;;;;1.42;0.50;;;33.30;31.30;;;31.78;16.88;100645.00;10380138;28;96695;-83
2022/07/18 15:02:57;;;;;;;1.63;0.80;;;33.20;31.30;;;31.68;17.46;100644.06;10409355;28;96625;-84
2022/07/18 15:08:00;;;;;;;1.50;0.60;;;33.10;31.60;;;31.88;17.27;100642.13;10410810;28;97147;-83
2022/07/18 15:13:05;;;;;;;0.80;0.40;;;33.20;31.70;;;32.00;17.37;100633.41;10414653;28;96466;-84
2022/07/18 15:18:08;;;;;;;1.38;0.50;;;33.30;31.90;;;32.09;17.42;100624.19;10406350;28;96732;-86
2022/07/18 15:23:11;;;;;;;1.65;0.50;;;33.40;31.70;;;32.05;17.15;100620.41;10395385;28;97414;-82
2022/07/18 15:28:14;;;;;;;1.20;0.52;;;33.40;31.70;;;31.77;17.23;100616.72;10410825;28;96622;-83
2022/07/18 15:33:18;;;;;;;2.35;0.52;;;33.20;31.60;;;31.45;17.54;100612.00;10365551;28;97739;-83
2022/07/18 15:38:20;;;;;;;2.08;0.50;;;33.00;31.50;;;31.66;17.54;100612.50;10407601;28;96594;-83
2022/07/18 15:43:24;;;;;;;1.98;0.90;;;32.90;31.90;;;31.51;17.54;100602.56;10402864;28;97030;-84
2022/07/18 15:48:27;;;;;;;1.42;0.60;;;32.90;31.80;;;31.36;17.70;100611.00;10411385;28;97879;-82
2022/07/18 15:53:30;;;;;;;0.98;0.70;;;32.70;31.90;;;31.36;17.74;100605.53;10411389;27;96948;-83
2022/07/18 15:58:33;;;;;;;1.55;0.50;;;32.80;32.00;;;31.52;17.92;100603.38;10419737;28;96474;-83
2022/07/18 16:03:36;;;;;;;1.50;0.68;;;32.90;32.00;;;31.90;18.23;100599.47;10405459;27;98840;-83
2022/07/18 16:08:39;;;;;;;0.85;0.40;;;33.10;32.30;;;31.83;17.50;100588.06;10407761;28;96586;-83
2022/07/18 16:13:42;;;;;;;2.17;0.60;;;33.20;31.80;;;31.78;17.54;100595.53;10382324;28;97537;-83
2022/07/18 16:18:46;;;;;;;1.67;0.60;;;33.20;31.60;;;31.61;17.75;100599.69;10409584;28;96687;-82
2022/07/18 16:23:49;;;;;;;1.42;0.50;;;33.20;31.90;;;31.37;17.88;100587.97;10405353;28;96625;-83
2022/07/18 16:28:57;;;;;;;0.73;0.50;;;32.90;31.90;;;31.35;17.75;100584.69;10397140;28;97058;-83
2022/07/18 16:34:00;;;;;;;4.38;0.75;;;32.90;32.10;;;31.52;17.85;100584.97;10403728;28;98318;-83
2022/07/18 16:39:03;;;;;;;3.70;0.50;;;33.00;32.10;;;31.93;18.39;100578.84;10374212;28;99246;-82
2022/07/18 16:44:07;;;;;;;1.13;0.55;;;33.10;32.40;;;31.89;17.79;100578.63;10420796;27;96627;-82
2022/07/18 16:49:11;;;;;;;1.27;0.60;;;33.20;32.20;;;31.93;17.64;100579.66;10389171;28;98520;-82
2022/07/18 16:54:14;;;;;;;1.52;0.55;;;33.20;31.90;;;31.91;17.95;100581.09;10392639;28;96675;-83
2022/07/18 16:59:18;;;;;;;2.83;0.68;;;33.00;32.20;;;31.88;17.34;100571.50;10395185;28;98472;-83
2022/07/18 17:04:22;;;;;;;1.42;0.55;;;32.90;32.00;;;31.77;17.67;100577.44;10412813;28;97517;-84
2022/07/18 17:09:25;;;;;;;2.30;0.50;;;32.80;32.20;;;31.50;17.56;100575.41;10401385;28;96613;-82
2022/07/18 17:14:28;;;;;;;1.77;0.50;;;32.60;31.90;;;31.12;18.09;100578.91;10408870;27;97395;-82
2022/07/18 17:19:31;;;;;;;0.98;0.50;;;32.20;32.40;;;30.77;18.64;100584.88;10405018;27;97185;-82
2022/07/18 17:24:35;;;;;;;1.83;0.85;;;31.80;33.00;;;30.37;19.33;100585.03;10401253;28;96568;-83
2022/07/18 17:29:39;;;;;;;4.97;0.55;;;31.40;33.30;;;30.05;19.25;100584.78;10419448;27;96761;-84
2022/07/18 17:34:44;;;;;;;0.80;0.50;;;31.10;33.90;;;29.79;19.81;100598.69;10458377;27;97717;-82
2022/07/18 17:39:50;;;;;;;3.42;0.60;;;30.80;33.60;;;29.43;19.56;100595.34;10440223;27;97034;-83
2022/07/18 17:44:54;;;;;;;4.15;0.80;;;30.40;33.70;;;29.09;20.29;100602.66;10425793;27;96601;-82
2022/07/18 17:49:58;;;;;;;3.58;0.75;;;30.00;33.90;;;28.75;20.38;100600.59;10426272;27;96651;-80
2022/07/18 17:55:05;;;;;;;2.67;0.57;;;29.70;34.20;;;28.43;20.51;100600.94;10409466;27;96929;-83
2022/07/18 18:00:10;;;;;;;3.25;0.60;;;29.40;34.40;;;28.11;21.08;100606.72;10440740;27;97218;-80
2022/07/18 18:05:13;;;;;;;5.28;0.75;;;29.10;34.80;;;27.78;21.54;100605.38;10426932;27;97503;-81
2022/07/18 18:10:19;;;;;;;4.15;0.60;;;28.80;35.00;;;27.50;21.60;100617.56;10436364;27;96820;-81
2022/07/18 18:15:24;;;;;;;3.40;0.50;;;28.50;35.20;;;27.23;22.05;100620.47;10429951;27;97934;-81
2022/07/18 18:20:27;;;;;;;5.63;0.82;;;28.20;35.40;;;26.98;22.68;100613.81;10426354;27;98425;-82
2022/07/18 18:25:29;;;;;;;4.75;0.80;;;28.00;35.70;;;26.74;22.83;100626.25;10419206;27;98888;-80
2022/07/18 18:30:33;;;;;;;4.90;0.88;;;27.80;36.00;;;26.47;23.41;100621.75;10414987;27;97498;-81
2022/07/18 18:35:36;;;;;;;5.15;0.77;;;27.60;36.30;;;26.18;23.72;100623.97;10429275;27;96620;-81
2022/07/18 18:40:39;;;;;;;2.78;0.95;;;27.30;36.60;;;25.95;24.10;100629.75;10430693;27;98229;-81
2022/07/18 18:45:42;;;;;;;1.88;0.50;;;27.00;36.90;;;25.70;24.60;100633.03;10438689;27;97448;-81
2022/07/18 18:50:45;;;;;;;2.75;1.00;;;26.70;37.30;;;25.50;24.78;100633.66;10439246;27;96439;-81
2022/07/18 18:55:48;;;;;;;2.70;0.80;;;26.50;37.60;;;25.31;25.09;100649.53;10442867;27;96563;-81
2022/07/18 19:00:51;;;;;;;4.65;0.80;;;26.30;37.80;;;25.14;25.27;100646.88;10440392;27;96913;-81
2022/07/18 19:05:55;;;;;;;2.92;0.50;;;26.10;37.90;;;25.00;25.68;100648.25;10465861;27;97313;-81
2022/07/18 19:10:58;;;;;;;3.03;0.80;;;26.00;38.30;;;24.85;25.85;100648.91;10418107;27;98150;-81
2022/07/18 19:16:00;;;;;;;1.55;0.65;;;25.80;38.40;;;24.71;26.00;100645.72;10457050;27;96575;-81
2022/07/18 19:21:03;;;;;;;4.38;0.70;;;25.70;38.70;;;24.63;26.43;100654.28;10464510;27;97319;-81
2022/07/18 19:26:06;;;;;;;1.38;0.70;;;25.60;38.90;;;24.53;26.71;100654.16;10442471;27;96591;-81
2022/07/18 19:31:09;;;;;;;2.75;0.70;;;25.50;39.00;;;24.44;26.51;100664.59;10414283;27;96718;-81
2022/07/18 19:36:13;;;;;;;2.08;0.60;;;25.40;39.20;;;24.34;26.83;100660.88;10453760;27;97401;-81
2022/07/18 19:41:16;;;;;;;2.42;0.90;;;25.30;39.30;;;24.22;27.05;100666.38;10431510;27;96620;-80
2022/07/18 19:46:19;;;;;;;0.93;0.50;;;25.20;39.40;;;;;;10436042;27;96647;-81
2022/07/18 19:51:22;;;;;;;2.55;0.70;;;25.10;39.80;;;23.95;28.15;100658.06;10437089;27;96863;-82
2022/07/18 19:56:26;;;;;;;2.45;0.63;;;25.00;40.40;;;23.86;28.62;100654.91;10443145;27;96546;-81
2022/07/18 20:01:29;;;;;;;2.42;0.63;;;24.90;40.90;;;23.79;29.10;100656.97;10420531;27;96713;-81
2022/07/18 20:06:33;;;;;;;2.08;0.65;;;24.80;41.20;;;23.71;29.49;100655.47;10428929;27;96801;-86
2022/07/18 20:11:37;;;;;;;2.15;0.70;;;24.70;41.60;;;23.68;29.64;100661.38;10437435;27;96912;-87
2022/07/18 20:16:39;;;;;;;2.90;0.73;;;24.70;41.80;;;23.59;30.38;100668.25;10407027;27;96983;-86
2022/07/18 20:21:42;;;;;;;3.53;1.02;;;24.70;42.20;;;23.44;30.77;100681.50;10433564;27;96689;-86
2022/07/18 20:26:45;;;;;;;2.78;0.60;;;24.60;42.30;;;23.23;31.08;100675.69;10436378;27;97115;-86
2022/07/18 20:31:48;;;;;;;2.25;0.60;;;24.50;42.60;;;23.06;31.49;100680.19;10416995;27;98551;-85
2022/07/18 20:36:51;;;;;;;2.13;0.65;;;24.30;43.00;;;22.88;31.81;100688.47;10434032;27;96566;-85
2022/07/18 20:41:55;;;;;;;1.75;1.00;;;24.10;43.40;;;22.67;32.20;100676.28;10422510;27;96509;-86
2022/07/18 20:46:59;;;;;;;1.75;0.70;;;23.90;43.80;;;22.44;32.87;100682.56;10444466;27;97529;-86
2022/07/18 20:52:02;;;;;;;4.13;0.95;;;23.60;44.30;;;22.20;33.40;100680.88;10427333;27;96520;-85
2022/07/18 20:57:05;;;;;;;1.48;0.68;;;23.40;44.90;;;21.99;33.86;100688.44;10440754;27;96594;-86